Time;durP1;ratioP1;P1;durP2;ratioP2;P2;SDS_P1;SDS_P2;PMS_P1;PMS_P2;Temp;Humidity;BMP_temperature;BMP_pressure;BME280_temperature;BME280_humidity;BME280_pressure;Samples;Min_cycle;Max_cycle;Signal;HPM_P1;HPM_P2
2021/12/09 00:02:16;;;;;;;2.58;1.30;;;19.50;44.20;;;;;;5053618;28;20037;-86
2021/12/09 00:04:42;;;;;;;3.05;1.30;;;19.50;44.20;;;;;;5055128;28;20059;-86
2021/12/09 00:07:08;;;;;;;4.43;1.30;;;19.50;44.30;;;;;;5054791;28;20436;-86
2021/12/09 00:09:34;;;;;;;5.97;1.67;;;19.40;44.20;;;;;;5054899;28;20028;-87
2021/12/09 00:12:00;;;;;;;3.53;1.38;;;19.40;44.30;;;;;;5055003;28;20021;-86
2021/12/09 00:14:33;;;;;;;3.35;1.45;;;19.40;44.30;;;;;;5054603;28;20025;-86
2021/12/09 00:17:00;;;;;;;;;;;19.40;44.30;;;;;;5055402;28;20033;-86
2021/12/09 00:19:26;;;;;;;3.28;1.40;;;19.20;44.30;;;;;;5054628;28;19905;-86
2021/12/09 00:21:52;;;;;;;4.07;1.42;;;19.20;44.40;;;;;;5054791;28;20037;-86
2021/12/09 00:24:18;;;;;;;4.25;1.40;;;19.20;44.40;;;;;;5054066;28;20070;-86
2021/12/09 00:26:46;;;;;;;3.75;1.60;;;19.20;44.40;;;;;;5054876;28;20096;-86
2021/12/09 00:29:15;;;;;;;3.33;1.40;;;19.20;44.40;;;;;;5054499;28;20059;-86
2021/12/09 00:31:40;;;;;;;2.58;1.25;;;19.20;44.40;;;;;;5054624;28;20020;-86
2021/12/09 00:34:06;;;;;;;4.40;1.40;;;19.20;44.40;;;;;;5054563;28;20032;-85
2021/12/09 00:36:37;;;;;;;2.85;1.40;;;19.10;44.40;;;;;;5054278;28;20029;-86
2021/12/09 00:39:04;;;;;;;4.82;1.30;;;19.10;44.40;;;;;;5054392;28;20024;-86
2021/12/09 00:41:30;;;;;;;3.78;1.38;;;19.10;44.40;;;;;;5054328;28;20029;-86
2021/12/09 00:43:55;;;;;;;2.03;1.20;;;19.00;44.40;;;;;;5054451;28;20025;-86
2021/12/09 00:46:21;;;;;;;2.42;1.25;;;19.00;44.40;;;;;;5052870;28;20488;-86
2021/12/09 00:48:47;;;;;;;3.22;1.42;;;19.00;44.50;;;;;;5054335;28;20032;-86
2021/12/09 00:51:13;;;;;;;2.75;1.10;;;19.00;44.50;;;;;;5054135;28;20100;-87
2021/12/09 00:53:39;;;;;;;1.95;1.23;;;19.00;44.50;;;;;;5054022;28;20098;-87
2021/12/09 00:56:09;;;;;;;3.10;1.25;;;18.90;44.60;;;;;;5054156;28;20025;-86
2021/12/09 00:58:36;;;;;;;3.08;1.23;;;19.00;44.60;;;;;;5054077;28;20158;-86
2021/12/09 01:01:03;;;;;;;2.17;1.20;;;18.90;44.70;;;;;;5053832;28;20039;-86
2021/12/09 01:03:29;;;;;;;2.40;1.40;;;18.90;44.60;;;;;;5053677;28;20021;-86
2021/12/09 01:05:54;;;;;;;2.35;1.25;;;18.90;44.70;;;;;;5054088;28;20021;-86
2021/12/09 01:08:20;;;;;;;3.50;1.30;;;18.80;44.70;;;;;;5053529;28;20474;-86
2021/12/09 01:10:45;;;;;;;2.55;1.50;;;18.80;44.70;;;;;;5053829;28;20510;-86
2021/12/09 01:13:12;;;;;;;4.20;1.33;;;18.80;44.70;;;;;;5053715;28;20013;-86
2021/12/09 01:15:39;;;;;;;2.47;1.17;;;18.80;44.80;;;;;;5053541;28;20024;-86
2021/12/09 01:18:04;;;;;;;2.78;1.35;;;18.70;44.80;;;;;;5053741;28;20394;-86
2021/12/09 01:20:31;;;;;;;3.00;1.30;;;18.70;44.80;;;;;;5053373;28;20029;-86
2021/12/09 01:22:57;;;;;;;1.33;1.10;;;18.70;44.90;;;;;;5053645;28;20028;-86
2021/12/09 01:25:25;;;;;;;3.05;1.30;;;18.70;44.90;;;;;;5053344;28;20049;-86
2021/12/09 01:27:54;;;;;;;2.30;1.38;;;18.60;44.90;;;;;;5053573;28;20076;-86
2021/12/09 01:30:21;;;;;;;2.17;1.35;;;18.60;44.90;;;;;;5053374;28;20104;-86
2021/12/09 01:32:51;;;;;;;3.00;1.30;;;18.60;44.90;;;;;;5053416;28;20092;-86
2021/12/09 01:35:27;;;;;;;2.97;1.52;;;18.60;44.90;;;;;;5053332;28;20397;-86
2021/12/09 01:37:57;;;;;;;2.03;1.50;;;18.60;44.90;;;;;;5053620;28;20029;-86
2021/12/09 01:40:24;;;;;;;3.13;1.25;;;18.50;44.90;;;;;;5052971;28;20025;-86
2021/12/09 01:42:50;;;;;;;4.05;1.20;;;18.50;44.90;;;;;;5053243;28;20028;-86
2021/12/09 01:45:16;;;;;;;2.60;1.20;;;18.50;44.90;;;;;;5053003;28;20024;-86
2021/12/09 01:47:42;;;;;;;1.88;1.23;;;18.40;44.90;;;;;;5053029;28;20482;-86
2021/12/09 01:50:09;;;;;;;2.15;1.23;;;18.40;44.90;;;;;;5052962;28;20377;-86
2021/12/09 01:52:36;;;;;;;3.08;1.30;;;18.40;44.90;;;;;;5052941;28;20021;-86
2021/12/09 01:55:03;;;;;;;2.50;1.27;;;18.40;44.90;;;;;;5052894;28;20032;-86
2021/12/09 01:57:28;;;;;;;2.75;1.45;;;18.40;45.00;;;;;;5052431;28;20017;-86
2021/12/09 01:59:54;;;;;;;4.00;1.48;;;18.30;44.90;;;;;;5052863;28;20104;-86
2021/12/09 02:02:20;;;;;;;3.65;1.70;;;18.30;44.90;;;;;;5052714;28;20028;-86
2021/12/09 02:04:45;;;;;;;3.33;1.50;;;18.30;44.90;;;;;;5052708;28;20071;-86
2021/12/09 02:07:11;;;;;;;2.13;1.30;;;18.30;44.90;;;;;;5052698;28;20025;-86
2021/12/09 02:09:38;;;;;;;3.50;1.48;;;18.20;45.90;;;;;;5052521;28;20162;-86
2021/12/09 02:12:04;;;;;;;2.30;1.42;;;18.20;45.00;;;;;;5052760;28;20532;-86
2021/12/09 02:14:30;;;;;;;2.60;1.48;;;18.20;45.00;;;;;;5052511;28;20022;-86
2021/12/09 02:16:55;;;;;;;4.07;1.60;;;18.20;45.00;;;;;;5051321;28;20091;-86
2021/12/09 02:19:21;;;;;;;3.83;1.10;;;18.20;45.00;;;;;;5052426;28;20056;-86
2021/12/09 02:21:47;;;;;;;2.30;1.55;;;18.10;45.00;;;;;;5052265;28;20067;-86
2021/12/09 02:24:16;;;;;;;2.17;1.20;;;18.10;45.00;;;;;;5052019;28;20023;-86
2021/12/09 02:26:45;;;;;;;2.42;1.45;;;18.10;45.10;;;;;;5052200;28;20493;-86
2021/12/09 02:29:13;;;;;;;2.80;1.20;;;18.00;45.10;;;;;;5052343;28;20104;-86
2021/12/09 02:31:40;;;;;;;2.00;1.20;;;18.00;45.10;;;;;;5052254;28;20059;-86
2021/12/09 02:34:07;;;;;;;2.85;1.20;;;18.00;45.10;;;;;;5052196;28;20028;-86
2021/12/09 02:36:37;;;;;;;4.60;1.50;;;18.00;45.20;;;;;;5052213;28;20082;-86
2021/12/09 02:39:08;;;;;;;1.80;1.17;;;18.00;45.20;;;;;;5052084;28;20021;-86
2021/12/09 02:41:35;;;;;;;2.85;1.50;;;18.00;45.30;;;;;;5051872;28;20032;-86
2021/12/09 02:44:05;;;;;;;3.10;1.27;;;17.90;45.20;;;;;;5052256;28;20059;-86
2021/12/09 02:46:37;;;;;;;3.13;1.33;;;17.90;45.30;;;;;;5052155;28;20049;-86
2021/12/09 02:49:12;;;;;;;4.93;1.40;;;17.90;45.40;;;;;;5052298;28;20033;-86
2021/12/09 02:51:39;;;;;;;2.92;1.25;;;17.90;45.40;;;;;;5051750;28;20086;-86
2021/12/09 02:54:08;;;;;;;1.55;1.30;;;17.80;45.30;;;;;;5051862;28;20025;-86
2021/12/09 02:56:35;;;;;;;2.15;1.27;;;17.80;45.40;;;;;;5051757;28;20386;-86
2021/12/09 02:59:00;;;;;;;2.53;1.30;;;17.80;45.40;;;;;;5051987;28;20056;-86
2021/12/09 03:01:33;;;;;;;2.15;1.35;;;17.80;45.40;;;;;;5051735;28;20060;-86
2021/12/09 03:04:01;;;;;;;2.75;1.20;;;17.80;45.50;;;;;;5051825;28;20060;-86
2021/12/09 03:06:33;;;;;;;2.58;1.30;;;17.70;45.50;;;;;;5051720;28;20036;-86
2021/12/09 03:09:02;;;;;;;3.15;1.38;;;17.70;45.50;;;;;;5054450;28;20120;-86
2021/12/09 03:11:29;;;;;;;2.53;1.27;;;17.70;45.50;;;;;;5058386;28;20056;-86
2021/12/09 03:13:54;;;;;;;2.05;1.15;;;17.70;45.50;;;;;;5058538;28;20082;-86
2021/12/09 03:16:22;;;;;;;2.22;1.30;;;17.70;45.60;;;;;;5058203;28;20025;-86
2021/12/09 03:18:55;;;;;;;2.33;1.17;;;17.60;45.60;;;;;;5058347;28;20025;-86
2021/12/09 03:21:29;;;;;;;2.25;1.30;;;17.60;45.50;;;;;;5058039;28;20060;-86
2021/12/09 03:23:57;;;;;;;2.80;1.30;;;17.60;45.60;;;;;;5058368;28;20069;-86
2021/12/09 03:26:40;;;;;;;2.67;1.40;;;17.60;45.60;;;;;;5057999;28;20056;-86
2021/12/09 03:29:10;;;;;;;2.42;1.20;;;17.60;45.70;;;;;;5057893;28;20029;-86
2021/12/09 03:31:40;;;;;;;2.35;1.40;;;17.50;45.60;;;;;;5058531;28;20025;-86
2021/12/09 03:34:06;;;;;;;1.88;1.20;;;17.50;45.60;;;;;;5058100;28;20108;-86
2021/12/09 03:36:32;;;;;;;2.45;1.20;;;17.50;45.70;;;;;;5058394;28;20092;-86
2021/12/09 03:39:00;;;;;;;1.73;1.10;;;17.50;45.70;;;;;;5058150;28;20134;-86
2021/12/09 03:41:26;;;;;;;2.30;1.40;;;17.50;45.70;;;;;;5058208;28;20040;-86
2021/12/09 03:43:52;;;;;;;2.40;1.55;;;17.50;45.70;;;;;;5058007;28;20029;-86
2021/12/09 03:46:18;;;;;;;2.15;1.23;;;17.50;45.80;;;;;;5058025;28;20492;-86
2021/12/09 03:48:44;;;;;;;3.22;1.48;;;17.40;45.70;;;;;;5058256;28;20025;-86
2021/12/09 03:51:10;;;;;;;3.05;1.60;;;17.40;45.70;;;;;;5057854;28;20029;-86
2021/12/09 03:53:36;;;;;;;2.88;1.60;;;17.40;45.80;;;;;;5058209;28;20021;-86
2021/12/09 03:56:02;;;;;;;3.58;1.55;;;17.40;45.80;;;;;;5057707;28;20028;-86
2021/12/09 03:58:28;;;;;;;1.70;1.50;;;17.40;45.80;;;;;;5058093;28;20021;-86
2021/12/09 04:00:54;;;;;;;2.47;1.50;;;17.30;45.80;;;;;;5057797;28;20551;-86
2021/12/09 04:03:20;;;;;;;3.75;1.85;;;17.30;45.90;;;;;;5057916;28;20021;-86
2021/12/09 04:05:47;;;;;;;2.50;1.58;;;17.30;45.80;;;;;;5058190;28;20025;-87
2021/12/09 04:08:13;;;;;;;2.33;1.50;;;17.30;45.90;;;;;;5057614;28;20032;-86
2021/12/09 04:10:39;;;;;;;3.30;1.85;;;17.30;45.90;;;;;;5058045;28;20021;-86
2021/12/09 04:13:05;;;;;;;1.77;1.40;;;17.30;45.90;;;;;;5057976;28;20017;-86
2021/12/09 04:15:31;;;;;;;2.00;1.40;;;17.30;45.90;;;;;;5058052;28;20017;-86
2021/12/09 04:17:57;;;;;;;2.40;1.30;;;17.20;45.90;;;;;;5057975;28;20378;-86
2021/12/09 04:20:23;;;;;;;2.58;1.33;;;17.20;45.90;;;;;;5056274;28;20021;-86
2021/12/09 04:22:49;;;;;;;3.03;1.38;;;17.20;46.00;;;;;;5054693;28;20025;-86
2021/12/09 04:25:21;;;;;;;2.10;1.30;;;17.20;46.00;;;;;;5054067;28;20052;-86
2021/12/09 04:27:48;;;;;;;1.90;1.30;;;17.20;46.00;;;;;;5054726;28;20024;-86
2021/12/09 04:30:14;;;;;;;2.17;1.20;;;17.20;46.00;;;;;;5054349;28;20024;-86
2021/12/09 04:32:40;;;;;;;2.22;1.38;;;17.10;46.00;;;;;;5054678;28;20033;-86
2021/12/09 04:35:08;;;;;;;2.10;1.40;;;17.10;46.00;;;;;;5054190;28;20029;-86
2021/12/09 04:37:34;;;;;;;2.58;1.58;;;17.10;46.10;;;;;;5054749;28;20024;-86
2021/12/09 04:40:00;;;;;;;2.30;1.20;;;17.10;46.10;;;;;;5053952;28;20029;-86
2021/12/09 04:42:27;;;;;;;3.10;1.30;;;17.00;46.00;;;;;;5054071;28;20474;-86
2021/12/09 04:44:52;;;;;;;2.53;1.50;;;17.00;46.00;;;;;;5054326;28;20025;-85
2021/12/09 04:47:18;;;;;;;2.70;1.70;;;17.00;46.00;;;;;;5053929;28;20424;-86
2021/12/09 04:49:44;;;;;;;2.45;1.50;;;17.00;46.10;;;;;;5054353;28;20022;-86
2021/12/09 04:52:10;;;;;;;3.20;1.48;;;17.00;46.10;;;;;;5054055;28;20028;-86
2021/12/09 04:54:37;;;;;;;2.47;1.48;;;17.00;46.20;;;;;;5053906;28;20067;-86
2021/12/09 04:57:04;;;;;;;2.60;1.10;;;17.00;46.20;;;;;;5054040;28;20017;-86
2021/12/09 04:59:30;;;;;;;2.28;1.30;;;16.90;46.20;;;;;;5053965;28;20082;-86
2021/12/09 05:01:55;;;;;;;2.75;1.73;;;16.90;46.20;;;;;;5053979;28;20033;-85
2021/12/09 05:04:21;;;;;;;2.42;1.52;;;16.90;46.10;;;;;;5053687;28;20075;-86
2021/12/09 05:06:47;;;;;;;3.80;1.50;;;16.90;46.20;;;;;;5054082;28;20049;-85
2021/12/09 05:09:18;;;;;;;3.17;1.60;;;16.90;46.20;;;;;;5053601;28;20068;-86
2021/12/09 05:14:11;;;;;;;2.67;1.55;;;16.80;46.30;;;;;;5053755;28;20057;-86
2021/12/09 05:16:37;;;;;;;2.50;1.60;;;16.80;46.20;;;;;;5053597;28;20048;-86
2021/12/09 05:19:03;;;;;;;2.63;1.70;;;16.80;46.20;;;;;;5053641;28;20021;-86
2021/12/09 05:21:36;;;;;;;3.15;1.80;;;16.80;46.30;;;;;;5053282;28;20053;-86
2021/12/09 05:24:03;;;;;;;2.88;1.83;;;16.80;46.20;;;;;;5053228;28;20462;-85
2021/12/09 05:26:34;;;;;;;2.28;1.40;;;16.80;46.20;;;;;;5053445;28;20021;-86
2021/12/09 05:29:00;;;;;;;3.47;1.50;;;16.80;46.30;;;;;;5053535;28;20028;-86
2021/12/09 05:34:12;;;;;;;2.22;1.45;;;16.70;46.20;;;;;;5053293;28;20439;-86
2021/12/09 05:36:38;;;;;;;2.40;1.48;;;16.70;46.30;;;;;;5053507;28;20474;-86
2021/12/09 05:39:06;;;;;;;1.95;1.40;;;16.70;46.40;;;;;;5053204;28;20029;-85
2021/12/09 05:41:33;;;;;;;3.20;1.63;;;16.70;46.40;;;;;;5053357;28;20025;-86
2021/12/09 05:44:03;;;;;;;3.83;1.60;;;16.70;46.50;;;;;;5053254;28;20036;-86
2021/12/09 05:46:29;;;;;;;2.65;1.38;;;16.70;46.40;;;;;;5052948;28;20037;-86
2021/12/09 05:48:55;;;;;;;2.17;1.50;;;16.60;46.50;;;;;;5053136;28;20053;-86
2021/12/09 05:51:24;;;;;;;2.00;1.50;;;16.60;46.40;;;;;;5051543;28;20052;-86
2021/12/09 05:53:51;;;;;;;2.33;1.40;;;16.60;46.40;;;;;;5053143;28;20057;-86
2021/12/09 05:56:17;;;;;;;2.33;1.52;;;16.60;46.50;;;;;;5052753;28;20028;-85
2021/12/09 05:58:43;;;;;;;2.88;1.70;;;16.60;46.50;;;;;;5052919;28;20047;-86
2021/12/09 06:01:09;;;;;;;2.72;1.70;;;16.50;46.40;;;;;;5052652;28;20036;-86
2021/12/09 06:03:35;;;;;;;3.20;2.10;;;16.50;46.30;;;;;;5052786;28;20028;-85
2021/12/09 06:06:01;;;;;;;2.60;1.70;;;16.50;46.20;;;;;;5052789;28;20024;-86
2021/12/09 06:08:27;;;;;;;2.20;1.30;;;16.50;46.20;;;;;;5052486;28;20021;-86
2021/12/09 06:10:54;;;;;;;3.70;1.75;;;16.50;46.30;;;;;;5052765;28;20146;-86
2021/12/09 06:13:22;;;;;;;3.70;1.60;;;16.50;46.30;;;;;;5052268;28;20029;-86
2021/12/09 06:15:47;;;;;;;3.83;1.63;;;16.50;46.40;;;;;;5052728;28;20037;-86
2021/12/09 06:18:13;;;;;;;2.45;1.30;;;16.50;46.30;;;;;;5052438;28;20494;-86
2021/12/09 06:20:39;;;;;;;1.90;1.40;;;16.50;46.50;;;;;;5052349;28;20028;-86
2021/12/09 06:23:04;;;;;;;3.78;1.88;;;16.60;46.50;;;;;;5052450;28;20470;-85
2021/12/09 06:25:31;;;;;;;2.72;1.92;;;16.60;46.50;;;;;;5052127;28;20053;-86
2021/12/09 06:27:57;;;;;;;3.35;1.98;;;16.60;46.40;;;;;;5052578;28;20035;-86
2021/12/09 06:30:24;;;;;;;2.90;1.55;;;16.70;46.80;;;;;;5052048;28;20025;-86
2021/12/09 06:32:50;;;;;;;2.42;1.70;;;16.70;46.20;;;;;;5052489;28;20057;-87
2021/12/09 06:35:17;;;;;;;2.75;1.83;;;16.80;46.10;;;;;;5052184;28;20017;-85
2021/12/09 06:37:45;;;;;;;3.40;1.70;;;16.90;46.10;;;;;;5052239;28;20409;-86
2021/12/09 06:40:14;;;;;;;3.72;1.65;;;17.00;46.90;;;;;;5051960;28;20021;-85
2021/12/09 06:42:44;;;;;;;2.80;1.65;;;17.10;45.80;;;;;;5051759;28;20068;-85
2021/12/09 06:45:11;;;;;;;2.22;1.60;;;17.20;45.80;;;;;;5051527;28;20033;-85
2021/12/09 06:47:37;;;;;;;3.33;1.55;;;17.30;45.70;;;;;;5051861;28;20112;-86
2021/12/09 06:50:04;;;;;;;3.67;1.73;;;17.50;45.60;;;;;;5052012;28;20070;-85
2021/12/09 06:52:30;;;;;;;3.10;1.60;;;17.60;45.50;;;;;;5051960;28;20033;-85
2021/12/09 06:54:55;;;;;;;3.80;1.60;;;17.70;45.30;;;;;;5052040;28;20831;-85
2021/12/09 06:57:21;;;;;;;2.85;1.50;;;17.90;45.20;;;;;;5051779;28;20021;-86
2021/12/09 06:59:46;;;;;;;3.00;1.60;;;18.10;45.00;;;;;;5051928;28;20032;-85
2021/12/09 07:02:12;;;;;;;3.40;1.52;;;18.30;44.80;;;;;;5051861;28;20131;-86
2021/12/09 07:04:37;;;;;;;3.40;1.40;;;18.40;44.60;;;;;;5051831;28;20033;-86
2021/12/09 07:07:03;;;;;;;2.58;1.25;;;18.60;44.20;;;;;;5051859;28;20028;-86
2021/12/09 07:09:30;;;;;;;4.00;1.60;;;18.80;44.20;;;;;;5051797;28;20017;-86
2021/12/09 07:11:59;;;;;;;4.47;1.60;;;19.00;44.80;;;;;;5050514;28;20070;-86
2021/12/09 07:14:25;;;;;;;3.25;1.50;;;19.20;43.60;;;;;;5051666;28;20021;-86
2021/12/09 07:16:51;;;;;;;2.95;1.50;;;19.30;43.20;;;;;;5051672;28;20032;-86
2021/12/09 07:19:17;;;;;;;3.38;1.60;;;19.50;43.00;;;;;;5051661;28;20571;-85
2021/12/09 07:21:42;;;;;;;3.60;1.40;;;19.60;42.70;;;;;;5051609;28;20086;-88
2021/12/09 07:24:08;;;;;;;3.67;1.63;;;19.80;42.50;;;;;;5051377;28;20492;-88
2021/12/09 07:26:34;;;;;;;3.33;1.67;;;19.90;42.30;;;;;;5050477;28;20443;-87
2021/12/09 07:29:00;;;;;;;4.05;1.55;;;20.10;42.10;;;;;;5051655;28;20024;-87
2021/12/09 07:31:27;;;;;;;5.93;1.70;;;20.20;41.90;;;;;;5051630;28;20029;-87
2021/12/09 07:33:54;;;;;;;3.53;1.60;;;20.30;41.80;;;;;;5050407;28;20377;-87
2021/12/09 07:36:20;;;;;;;3.55;1.52;;;20.40;41.60;;;;;;5050239;28;20072;-87
2021/12/09 07:38:46;;;;;;;6.28;1.70;;;20.40;41.40;;;;;;5051445;28;20049;-87
2021/12/09 07:41:15;;;;;;;4.30;1.70;;;20.50;41.40;;;;;;5051483;28;20076;-86
2021/12/09 07:43:41;;;;;;;7.13;1.88;;;20.60;41.30;;;;;;5051536;28;20074;-87
2021/12/09 07:46:08;;;;;;;6.72;2.13;;;20.60;41.10;;;;;;5051505;28;20411;-86
2021/12/09 07:48:33;;;;;;;5.53;1.88;;;20.60;41.00;;;;;;5051645;28;20025;-87
2021/12/09 07:50:59;;;;;;;5.60;1.92;;;20.70;41.00;;;;;;5050093;28;20028;-86
2021/12/09 07:53:25;;;;;;;6.45;1.95;;;20.70;40.90;;;;;;5051407;28;20025;-86
2021/12/09 07:55:52;;;;;;;4.90;1.50;;;20.70;40.80;;;;;;5053728;28;20029;-86
2021/12/09 07:58:18;;;;;;;4.22;1.60;;;20.70;40.70;;;;;;5055414;28;20371;-86
2021/12/09 08:00:44;;;;;;;5.22;1.60;;;20.80;40.70;;;;;;5055327;28;20044;-87
2021/12/09 08:03:10;;;;;;;3.60;1.80;;;20.80;40.70;;;;;;5054933;28;20377;-86
2021/12/09 08:05:38;;;;;;;5.60;1.77;;;20.80;41.70;;;;;;5055121;28;20017;-86
2021/12/09 08:08:05;;;;;;;4.13;1.58;;;20.80;40.60;;;;;;5054851;28;20013;-86
2021/12/09 08:10:30;;;;;;;4.18;1.90;;;20.80;40.70;;;;;;5055043;28;20104;-87
2021/12/09 08:12:58;;;;;;;4.07;1.80;;;20.80;40.50;;;;;;5055034;28;20103;-87
2021/12/09 08:15:23;;;;;;;3.63;1.90;;;20.80;40.60;;;;;;5053680;28;20033;-87
2021/12/09 08:18:02;;;;;;;3.20;1.85;;;20.80;40.60;;;;;;5054992;28;20093;-87
2021/12/09 08:20:30;;;;;;;5.13;1.70;;;20.80;40.50;;;;;;5054717;28;20025;-86
2021/12/09 08:22:55;;;;;;;4.10;1.80;;;20.80;40.50;;;;;;5054634;28;20021;-86
2021/12/09 08:25:22;;;;;;;4.47;1.77;;;20.80;40.50;;;;;;5054441;28;20045;-87
2021/12/09 08:27:49;;;;;;;4.80;1.70;;;20.80;40.50;;;;;;5054675;28;20071;-86
2021/12/09 08:30:20;;;;;;;4.00;1.70;;;20.80;40.50;;;;;;5054519;28;20040;-87
2021/12/09 08:32:45;;;;;;;3.25;1.60;;;20.80;40.50;;;;;;5054599;28;20028;-88
2021/12/09 08:35:12;;;;;;;3.35;1.80;;;20.80;40.50;;;;;;5053133;28;20070;-87
2021/12/09 08:37:37;;;;;;;3.45;2.00;;;20.80;40.50;;;;;;5054503;28;20111;-88
2021/12/09 08:40:05;;;;;;;4.50;1.52;;;20.70;40.40;;;;;;5054211;28;20060;-86
2021/12/09 08:42:31;;;;;;;3.53;1.75;;;20.80;40.50;;;;;;5054392;28;20425;-88
2021/12/09 08:44:57;;;;;;;3.53;1.75;;;20.70;40.50;;;;;;5054312;28;20028;-86
2021/12/09 08:47:22;;;;;;;3.42;1.65;;;20.70;40.50;;;;;;5054219;28;20108;-86
2021/12/09 08:49:48;;;;;;;2.42;1.55;;;20.70;40.50;;;;;;5054238;28;20028;-86
2021/12/09 08:52:14;;;;;;;3.47;1.70;;;20.70;40.50;;;;;;5053991;28;20021;-86
2021/12/09 08:54:40;;;;;;;3.47;1.60;;;20.70;40.50;;;;;;5054278;28;20032;-86
2021/12/09 08:57:06;;;;;;;3.03;1.70;;;20.70;40.60;;;;;;5054025;28;20021;-86
2021/12/09 08:59:31;;;;;;;3.47;1.92;;;20.70;40.60;;;;;;5054030;28;20029;-86
2021/12/09 09:01:57;;;;;;;3.17;1.70;;;20.70;40.50;;;;;;5054076;28;20363;-86
2021/12/09 09:04:23;;;;;;;3.75;1.50;;;20.70;40.50;;;;;;5053734;28;20025;-86
2021/12/09 09:06:57;;;;;;;2.78;1.67;;;20.70;40.50;;;;;;5053017;28;20090;-86
2021/12/09 09:09:25;;;;;;;3.47;1.90;;;20.70;40.40;;;;;;5053818;28;20021;-87
2021/12/09 09:11:51;;;;;;;3.63;1.63;;;20.60;40.40;;;;;;5053900;28;20485;-87
2021/12/09 09:14:17;;;;;;;2.60;1.58;;;20.60;40.40;;;;;;5053750;28;20056;-87
2021/12/09 09:16:43;;;;;;;2.50;1.60;;;20.60;40.50;;;;;;5053927;28;20518;-86
2021/12/09 09:19:09;;;;;;;3.85;1.60;;;20.60;40.50;;;;;;5053371;28;20051;-87
2021/12/09 09:21:35;;;;;;;2.75;1.50;;;20.60;40.50;;;;;;5053640;28;20060;-86
2021/12/09 09:24:03;;;;;;;3.13;1.60;;;20.60;40.50;;;;;;5053507;28;20466;-86
2021/12/09 09:26:29;;;;;;;2.10;1.50;;;20.60;40.60;;;;;;5053493;28;20035;-87
2021/12/09 09:28:55;;;;;;;3.78;1.70;;;20.60;40.70;;;;;;5052301;28;20025;-88
2021/12/09 09:31:24;;;;;;;5.25;1.70;;;20.60;40.60;;;;;;5053146;28;20028;-86
2021/12/09 09:33:49;;;;;;;3.03;1.45;;;20.60;40.60;;;;;;5052184;28;20025;-88
2021/12/09 09:36:15;;;;;;;4.70;1.77;;;20.60;40.60;;;;;;5053103;28;20070;-87
2021/12/09 09:38:40;;;;;;;2.70;1.48;;;20.60;40.70;;;;;;5052011;28;20378;-86
2021/12/09 09:41:13;;;;;;;3.03;1.50;;;20.60;40.70;;;;;;5053248;28;20036;-87
2021/12/09 09:46:12;;;;;;;4.22;1.63;;;20.60;40.70;;;;;;5052891;28;20090;-87
2021/12/09 09:48:39;;;;;;;3.38;1.92;;;20.60;40.80;;;;;;5053225;28;20412;-86
2021/12/09 09:51:06;;;;;;;3.38;1.60;;;20.60;40.70;;;;;;5053010;28;20025;-87
2021/12/09 09:53:33;;;;;;;2.95;1.73;;;20.50;40.70;;;;;;5053077;28;20025;-87
2021/12/09 09:55:58;;;;;;;3.05;1.55;;;20.60;40.70;;;;;;5053083;28;20021;-88
2021/12/09 09:58:25;;;;;;;3.35;1.38;;;20.50;40.70;;;;;;5052858;28;20075;-86
2021/12/09 10:00:51;;;;;;;3.63;1.70;;;20.60;40.80;;;;;;5052859;28;20037;-86
2021/12/09 10:03:17;;;;;;;4.15;1.40;;;20.50;40.80;;;;;;5052627;28;20017;-87
2021/12/09 10:05:49;;;;;;;3.35;1.67;;;20.60;40.80;;;;;;5052835;28;20051;-88
2021/12/09 10:08:16;;;;;;;3.38;1.58;;;20.60;40.90;;;;;;5052566;28;20045;-87
2021/12/09 10:10:44;;;;;;;2.90;1.55;;;20.50;40.80;;;;;;5052955;28;20100;-86
2021/12/09 10:13:13;;;;;;;3.25;1.75;;;20.60;40.90;;;;;;5052349;28;20017;-85
2021/12/09 10:15:48;;;;;;;2.63;1.25;;;20.60;40.90;;;;;;5052862;28;20078;-86
2021/12/09 10:18:32;;;;;;;2.80;1.58;;;20.60;40.90;;;;;;5050961;28;20025;-86
2021/12/09 10:20:58;;;;;;;3.10;1.40;;;20.60;40.80;;;;;;5052444;28;20079;-86
2021/12/09 10:23:34;;;;;;;2.55;1.55;;;20.50;40.90;;;;;;5052523;28;20028;-87
2021/12/09 10:26:19;;;;;;;2.47;1.50;;;20.60;41.00;;;;;;5052229;28;20076;-86
2021/12/09 10:28:51;;;;;;;3.20;1.60;;;20.50;40.90;;;;;;5051127;28;20418;-86
2021/12/09 10:31:28;;;;;;;2.78;1.48;;;20.50;40.90;;;;;;5051150;28;20035;-86
2021/12/09 10:34:38;;;;;;;2.58;1.60;;;20.60;41.00;;;;;;5052264;28;20032;-87
2021/12/09 10:36:48;;;;;;;3.10;1.50;;;20.50;40.90;;;;;;5046817;28;20037;-87
2021/12/09 10:39:29;;;;;;;2.53;1.42;;;20.60;41.00;;;;;;5051936;28;20027;-87
2021/12/09 10:41:58;;;;;;;2.85;1.60;;;20.60;41.00;;;;;;5052067;28;20381;-86
2021/12/09 10:44:36;;;;;;;2.30;1.40;;;20.50;40.90;;;;;;5050854;28;20119;-87
2021/12/09 10:47:10;;;;;;;2.25;1.40;;;20.60;41.00;;;;;;5052056;28;20104;-87
2021/12/09 10:49:49;;;;;;;2.13;1.35;;;20.60;41.00;;;;;;5052138;28;20140;-87
2021/12/09 10:52:36;;;;;;;2.15;1.38;;;20.60;41.00;;;;;;5051863;28;20036;-88
2021/12/09 10:55:09;;;;;;;3.17;1.65;;;20.60;41.10;;;;;;5051922;28;20032;-87
2021/12/09 10:57:35;;;;;;;2.70;1.50;;;20.50;41.00;;;;;;5051342;28;20025;-86
2021/12/09 11:00:17;;;;;;;2.50;1.70;;;20.50;41.10;;;;;;5050512;28;20037;-86
2021/12/09 11:03:03;;;;;;;2.92;1.80;;;20.50;41.00;;;;;;5052332;28;20029;-86
2021/12/09 11:05:30;;;;;;;2.72;1.50;;;20.50;41.00;;;;;;5051914;28;20116;-86
2021/12/09 11:08:15;;;;;;;2.80;1.60;;;20.50;41.10;;;;;;5051844;28;20090;-87
2021/12/09 11:10:47;;;;;;;3.72;1.35;;;20.50;41.00;;;;;;5051974;28;20021;-86
2021/12/09 11:13:15;;;;;;;2.58;1.33;;;20.50;41.10;;;;;;5051657;28;20033;-87
2021/12/09 11:15:59;;;;;;;2.03;1.50;;;20.50;41.10;;;;;;5051721;28;20032;-87
2021/12/09 11:18:31;;;;;;;3.17;1.55;;;20.50;41.10;;;;;;5051769;28;20037;-87
2021/12/09 11:20:58;;;;;;;2.63;1.50;;;20.50;41.10;;;;;;5051785;28;20067;-87
2021/12/09 11:23:43;;;;;;;2.88;1.60;;;20.50;41.10;;;;;;5051769;28;20017;-86
2021/12/09 11:29:30;;;;;;;9.40;1.90;;;20.50;41.10;;;;;;5024236;28;20421;-89
2021/12/09 11:32:12;;;;;;;8.68;1.98;;;20.50;41.30;;;;;;5054594;28;20029;-88
2021/12/09 11:34:48;;;;;;;8.30;2.00;;;20.50;41.10;;;;;;5054532;28;20386;-88
2021/12/09 11:37:38;;;;;;;7.03;1.67;;;20.50;41.00;;;;;;5054334;28;20025;-89
2021/12/09 11:40:40;;;;;;;6.22;2.03;;;20.50;40.90;;;;;;5054278;28;20036;-88
2021/12/09 11:43:10;;;;;;;6.22;1.92;;;20.50;40.90;;;;;;5053888;28;20025;-88
2021/12/09 11:45:40;;;;;;;7.53;1.77;;;20.50;41.00;;;;;;5054075;28;20029;-88
2021/12/09 11:48:08;;;;;;;6.68;1.85;;;20.50;40.90;;;;;;5053754;28;20059;-89
2021/12/09 11:50:37;;;;;;;7.05;1.67;;;20.50;40.90;;;;;;5054468;28;20053;-88
2021/12/09 11:53:06;;;;;;;5.50;1.60;;;20.50;40.90;;;;;;5054835;28;20386;-89
2021/12/09 11:55:39;;;;;;;10.35;2.15;;;20.50;41.00;;;;;;5055412;28;20028;-88
2021/12/09 11:58:12;;;;;;;4.85;1.88;;;20.50;41.00;;;;;;5054642;28;20029;-89
2021/12/09 12:12:33;;;;;;;7.53;2.22;;;20.50;41.10;;;;;;5054777;28;20056;-89
2021/12/09 12:18:36;;;;;;;6.07;1.98;;;20.40;40.90;;;;;;5051265;28;20429;-89
2021/12/09 12:29:52;;;;;;;4.22;1.70;;;20.40;41.00;;;;;;5054528;28;20040;-88
2021/12/09 12:32:40;;;;;;;3.92;1.90;;;20.40;41.00;;;;;;5053167;28;20028;-89
2021/12/09 12:40:37;;;;;;;7.40;1.90;;;20.30;41.20;;;;;;5054073;28;20041;-87
2021/12/09 12:43:16;;;;;;;5.68;2.00;;;20.30;41.20;;;;;;5053343;28;20420;-88
2021/12/09 12:46:10;;;;;;;8.25;2.20;;;20.30;41.30;;;;;;5053516;28;20044;-88
2021/12/09 12:49:19;;;;;;;5.65;2.13;;;20.30;41.30;;;;;;5053033;28;20120;-89
2021/12/09 12:52:29;;;;;;;9.95;2.28;;;20.30;41.10;;;;;;5054437;28;20075;-89
2021/12/09 12:55:12;;;;;;;5.95;1.92;;;20.30;41.00;;;;;;5052742;28;20040;-92
2021/12/09 12:57:45;;;;;;;5.68;2.00;;;20.30;40.90;;;;;;5049102;28;20363;-90
2021/12/09 13:00:23;;;;;;;7.88;2.00;;;20.20;40.80;;;;;;5033828;28;20375;-90
2021/12/09 13:05:46;;;;;;;5.75;1.60;;;20.20;41.00;;;;;;5034514;28;20379;-91
2021/12/09 13:13:58;;;;;;;6.78;1.90;;;20.20;41.30;;;;;;5034315;28;20490;-92
2021/12/09 13:19:31;;;;;;;6.72;2.17;;;20.20;41.40;;;;;;5034620;28;20026;-89
2021/12/09 13:22:26;;;;;;;5.72;1.95;;;20.20;41.40;;;;;;5049030;28;20441;-90
2021/12/09 13:25:05;;;;;;;7.38;1.77;;;20.20;41.50;;;;;;5053736;28;20045;-90
2021/12/09 13:30:28;;;;;;;4.53;1.95;;;20.20;41.70;;;;;;5053825;28;20420;-90
2021/12/09 13:35:40;;;;;;;6.32;2.00;;;20.20;41.70;;;;;;5053628;28;20060;-91
2021/12/09 13:46:18;;;;;;;7.47;2.08;;;20.30;42.00;;;;;;5053809;28;20054;-91
2021/12/09 13:49:03;;;;;;;7.05;1.60;;;20.40;41.90;;;;;;5053578;28;20113;-91
2021/12/09 13:54:06;;;;;;;4.80;1.95;;;20.50;41.90;;;;;;5053651;28;20031;-91
2021/12/09 13:57:02;;;;;;;3.78;1.65;;;20.80;41.80;;;;;;5053406;28;20017;-90
2021/12/09 13:59:30;;;;;;;4.90;1.58;;;20.90;41.70;;;;;;5052095;28;20029;-91
2021/12/09 14:01:58;;;;;;;5.18;1.95;;;21.00;41.40;;;;;;5051967;28;20029;-91
2021/12/09 14:04:32;;;;;;;4.72;1.63;;;21.10;41.20;;;;;;5051883;28;20094;-91
2021/12/09 14:07:10;;;;;;;5.55;1.90;;;21.30;41.10;;;;;;5053220;28;20029;-90